createdAt,value
2019-03-25T00:00:17.063Z,3.11
2019-03-25T00:01:17.050Z,2.97
2019-03-25T00:02:17.020Z,3.02
2019-03-25T00:03:17.009Z,2.91
2019-03-25T00:04:16.995Z,2.94
2019-03-25T00:05:16.994Z,2.99
2019-03-25T00:06:17.000Z,2.96
2019-03-25T00:07:16.964Z,3.02
2019-03-25T00:08:16.954Z,3.07
2019-03-25T00:09:16.967Z,2.91
2019-03-25T00:10:16.934Z,2.93
2019-03-25T00:11:16.948Z,2.94
2019-03-25T00:12:16.926Z,2.91
2019-03-25T00:13:16.906Z,2.93
2019-03-25T00:14:16.890Z,2.96
2019-03-25T00:15:16.930Z,2.97
2019-03-25T00:16:16.868Z,2.96
2019-03-25T00:17:16.878Z,2.94
2019-03-25T00:18:16.885Z,2.93
2019-03-25T00:19:16.843Z,2.90
2019-03-25T00:20:16.838Z,2.89
2019-03-25T00:21:16.820Z,2.91
2019-03-25T00:22:16.830Z,2.96
2019-03-25T00:23:16.798Z,2.90
2019-03-25T00:24:16.788Z,2.84
2019-03-25T00:25:16.813Z,2.94
2019-03-25T00:26:16.759Z,3.00
2019-03-25T00:27:16.772Z,2.93
2019-03-25T00:28:16.747Z,2.94
2019-03-25T00:29:16.732Z,2.97
2019-03-25T00:30:16.738Z,2.91
2019-03-25T00:31:16.759Z,2.93
2019-03-25T00:32:16.716Z,2.97
2019-03-25T00:33:16.686Z,2.99
2019-03-25T00:34:16.672Z,2.99
2019-03-25T00:35:16.663Z,2.93
2019-03-25T00:36:16.655Z,3.02
2019-03-25T00:37:16.660Z,3.04
2019-03-25T00:38:16.674Z,3.12
2019-03-25T00:39:16.624Z,3.08
2019-03-25T00:40:16.617Z,3.23
2019-03-25T00:41:16.601Z,3.29
2019-03-25T00:42:16.609Z,3.29
2019-03-25T00:43:16.598Z,3.42
2019-03-25T00:44:16.638Z,3.36
2019-03-25T00:45:16.559Z,3.37
2019-03-25T00:46:16.551Z,3.44
2019-03-25T00:47:16.559Z,3.49
2019-03-25T00:48:16.561Z,3.60
2019-03-25T00:49:16.515Z,3.66
2019-03-25T00:50:16.507Z,3.59
2019-03-25T00:51:16.505Z,3.70
2019-03-25T00:52:16.497Z,3.73
2019-03-25T00:53:16.471Z,3.81
2019-03-25T00:54:16.460Z,3.81
2019-03-25T00:55:16.471Z,3.87
2019-03-25T00:56:16.441Z,3.94
2019-03-25T00:57:16.447Z,3.87
2019-03-25T00:58:16.443Z,4.00
2019-03-25T00:59:16.410Z,3.99
2019-03-25T01:00:16.399Z,4.03
2019-03-25T01:01:16.391Z,4.03
2019-03-25T01:02:16.391Z,4.05
2019-03-25T01:03:16.401Z,4.13
2019-03-25T01:04:16.349Z,4.21
2019-03-25T01:05:16.353Z,4.21
2019-03-25T01:06:16.333Z,4.18
2019-03-25T01:07:16.338Z,4.34
2019-03-25T01:08:16.313Z,4.26
2019-03-25T01:09:16.342Z,4.36
2019-03-25T01:10:16.293Z,4.31
2019-03-25T01:11:16.273Z,4.41
2019-03-25T01:12:16.281Z,4.39
2019-03-25T01:13:16.262Z,4.42
2019-03-25T01:14:16.247Z,4.38
2019-03-25T01:15:16.254Z,4.42
2019-03-25T01:16:16.221Z,4.42
2019-03-25T01:17:16.222Z,4.39
2019-03-25T01:18:17.278Z,4.36
2019-03-25T01:19:16.191Z,4.34
2019-03-25T01:20:16.244Z,4.39
2019-03-25T01:21:16.204Z,4.45
2019-03-25T01:22:16.174Z,4.39
2019-03-25T01:23:16.148Z,4.36
2019-03-25T01:24:16.170Z,4.34
2019-03-25T01:25:16.130Z,4.28
2019-03-25T01:26:16.119Z,4.28
2019-03-25T01:27:16.161Z,4.31
2019-03-25T01:28:16.108Z,4.23
2019-03-25T01:29:16.084Z,4.27
2019-03-25T01:30:16.076Z,4.21
2019-03-25T01:31:16.058Z,4.24
2019-03-25T01:32:16.084Z,4.20
2019-03-25T01:33:16.048Z,4.17
2019-03-25T01:34:16.026Z,4.08
2019-03-25T01:35:16.024Z,4.08
2019-03-25T01:36:16.016Z,4.05
2019-03-25T01:37:16.000Z,4.02
2019-03-25T01:38:16.000Z,3.96
2019-03-25T01:39:15.972Z,4.02
2019-03-25T01:40:15.990Z,4.08
2019-03-25T01:41:15.955Z,4.02
2019-03-25T01:42:15.942Z,4.03
2019-03-25T01:43:15.947Z,3.96
2019-03-25T01:44:15.933Z,3.94
2019-03-25T01:45:15.910Z,3.98
2019-03-25T01:46:15.904Z,3.94
2019-03-25T01:47:15.930Z,3.99
2019-03-25T01:48:15.900Z,3.99
2019-03-25T01:49:15.866Z,3.94
2019-03-25T01:50:15.860Z,3.85
2019-03-25T01:51:15.844Z,3.90
2019-03-25T01:52:15.835Z,3.92
2019-03-25T01:53:15.852Z,3.84
2019-03-25T01:54:15.862Z,3.85
2019-03-25T01:55:15.805Z,3.85
2019-03-25T01:56:15.793Z,3.96
2019-03-25T01:57:15.788Z,3.82
2019-03-25T01:58:15.788Z,4.03
2019-03-25T01:59:15.763Z,3.99
2019-03-25T02:00:15.793Z,4.03
2019-03-25T02:01:15.746Z,3.96
2019-03-25T02:02:15.729Z,3.84
2019-03-25T02:03:15.743Z,3.99
2019-03-25T02:04:15.712Z,3.96
2019-03-25T02:05:15.721Z,3.98
2019-03-25T02:06:15.687Z,3.96
2019-03-25T02:07:15.675Z,3.98
2019-03-25T02:08:15.687Z,3.90
2019-03-25T02:09:15.682Z,3.96
2019-03-25T02:10:15.641Z,3.99
2019-03-25T02:11:15.632Z,4.02
2019-03-25T02:12:15.629Z,4.02
2019-03-25T02:13:15.627Z,4.02
2019-03-25T02:14:15.599Z,4.05
2019-03-25T02:15:15.595Z,3.92
2019-03-25T02:16:15.587Z,4.00
2019-03-25T02:17:15.605Z,4.08
2019-03-25T02:18:15.578Z,3.92
2019-03-25T02:19:15.543Z,3.96
2019-03-25T02:20:25.851Z,3.92
2019-03-25T02:21:16.523Z,3.92
2019-03-25T02:22:15.519Z,3.84
2019-03-25T02:23:15.531Z,3.81
2019-03-25T02:24:15.520Z,3.74
2019-03-25T02:25:24.754Z,3.82
2019-03-25T02:26:16.499Z,3.81
2019-03-25T02:27:15.464Z,3.64
2019-03-25T02:28:15.448Z,3.63
2019-03-25T02:29:15.461Z,3.72
2019-03-25T02:30:15.443Z,3.60
2019-03-25T02:31:15.420Z,3.64
2019-03-25T02:32:15.416Z,3.66
2019-03-25T02:33:15.397Z,3.64
2019-03-25T02:34:15.407Z,3.66
2019-03-25T02:35:15.383Z,3.48
2019-03-25T02:36:15.408Z,3.52
2019-03-25T02:37:15.378Z,3.54
2019-03-25T02:38:15.351Z,3.42
2019-03-25T02:39:15.351Z,3.36
2019-03-25T02:40:15.328Z,3.33
2019-03-25T02:41:18.537Z,3.44
2019-03-25T02:42:15.312Z,3.30
2019-03-25T02:43:15.307Z,3.41
2019-03-25T02:44:15.302Z,3.37
2019-03-25T02:45:15.293Z,3.32
2019-03-25T02:46:15.259Z,3.44
2019-03-25T02:47:15.250Z,3.36
2019-03-25T02:48:15.241Z,3.27
2019-03-25T02:49:15.239Z,3.33
2019-03-25T02:50:15.217Z,3.29
2019-03-25T02:51:15.246Z,3.26
2019-03-25T02:52:15.205Z,3.32
2019-03-25T02:53:15.194Z,3.25
2019-03-25T02:54:15.196Z,3.33
2019-03-25T02:55:15.189Z,3.20
2019-03-25T02:56:15.157Z,3.27
2019-03-25T02:57:15.147Z,3.17
2019-03-25T02:58:15.137Z,3.25
2019-03-25T02:59:15.174Z,3.32
2019-03-25T03:00:15.149Z,3.36
2019-03-25T03:01:15.101Z,3.26
2019-03-25T03:02:15.090Z,3.32
2019-03-25T03:03:15.082Z,3.33
2019-03-25T03:04:15.078Z,3.32
2019-03-25T03:05:15.056Z,3.41
2019-03-25T03:06:15.049Z,3.37
2019-03-25T03:07:15.060Z,3.36
2019-03-25T03:08:15.041Z,3.42
2019-03-25T03:09:15.025Z,3.48
2019-03-25T03:10:15.012Z,3.44
2019-03-25T03:11:15.007Z,3.46
2019-03-25T03:12:15.009Z,3.51
2019-03-25T03:13:14.968Z,3.44
2019-03-25T03:14:15.618Z,3.46
2019-03-25T03:15:14.966Z,3.44
2019-03-25T03:16:14.938Z,3.44
2019-03-25T03:17:14.928Z,3.48
2019-03-25T03:18:14.921Z,3.44
2019-03-25T03:19:14.925Z,3.45
2019-03-25T03:20:14.896Z,3.46
2019-03-25T03:21:14.938Z,3.44
2019-03-25T03:22:14.875Z,3.33
2019-03-25T03:23:14.862Z,3.41
2019-03-25T03:24:14.866Z,3.42
2019-03-25T03:25:14.844Z,3.36
2019-03-25T03:26:14.842Z,3.41
2019-03-25T03:27:14.817Z,3.49
2019-03-25T03:28:14.836Z,3.37
2019-03-25T03:29:14.832Z,3.23
2019-03-25T03:30:14.798Z,3.36
2019-03-25T03:31:14.783Z,3.30
2019-03-25T03:32:14.785Z,3.35
2019-03-25T03:33:14.797Z,3.35
2019-03-25T03:34:14.787Z,3.33
2019-03-25T03:35:14.735Z,3.22
2019-03-25T03:36:14.727Z,3.25
2019-03-25T03:37:14.715Z,3.26
2019-03-25T03:38:14.703Z,3.29
2019-03-25T03:39:14.746Z,3.22
2019-03-25T03:40:14.688Z,3.23
2019-03-25T03:41:14.671Z,3.23
2019-03-25T03:42:14.664Z,3.23
2019-03-25T03:43:14.664Z,3.27
2019-03-25T03:44:14.642Z,3.35
2019-03-25T03:45:14.667Z,3.35
2019-03-25T03:46:14.616Z,3.36
2019-03-25T03:47:14.617Z,3.46
2019-03-25T03:48:14.596Z,3.51
2019-03-25T03:49:14.581Z,3.44
2019-03-25T03:50:14.593Z,3.35
2019-03-25T03:51:14.581Z,3.49
2019-03-25T03:52:14.551Z,3.45
2019-03-25T03:53:14.584Z,3.48
2019-03-25T03:54:14.535Z,3.56
2019-03-25T03:55:14.538Z,3.64
2019-03-25T03:56:14.677Z,3.63
2019-03-25T03:57:14.498Z,3.59
2019-03-25T03:58:14.487Z,3.82
2019-03-25T03:59:14.514Z,3.88
2019-03-25T04:00:14.481Z,3.87
2019-03-25T04:01:14.463Z,3.81
2019-03-25T04:02:14.442Z,3.81
2019-03-25T04:03:14.435Z,3.87
2019-03-25T04:04:14.428Z,3.80
2019-03-25T04:05:14.431Z,3.74
2019-03-25T04:06:14.406Z,3.81
2019-03-25T04:07:14.457Z,3.81
2019-03-25T04:08:14.375Z,3.69
2019-03-25T04:09:14.368Z,3.73
2019-03-25T04:10:14.393Z,3.80
2019-03-25T04:11:14.347Z,3.84
2019-03-25T04:12:14.347Z,3.82
2019-03-25T04:13:14.333Z,3.81
2019-03-25T04:14:14.357Z,3.80
2019-03-25T04:15:14.348Z,3.76
2019-03-25T04:16:14.311Z,3.94
2019-03-25T04:17:14.287Z,3.88
2019-03-25T04:18:14.277Z,3.91
2019-03-25T04:19:14.263Z,3.90
2019-03-25T04:20:14.265Z,3.98
2019-03-25T04:21:14.245Z,3.98
2019-03-25T04:22:14.259Z,4.00
2019-03-25T04:23:14.226Z,4.05
2019-03-25T04:24:14.210Z,4.09
2019-03-25T04:25:14.218Z,4.06
2019-03-25T04:26:27.604Z,4.12
2019-03-25T04:27:15.178Z,4.06
2019-03-25T04:28:14.199Z,4.18
2019-03-25T04:29:14.159Z,4.18
2019-03-25T04:30:14.181Z,4.20
2019-03-25T04:31:14.133Z,4.17
2019-03-25T04:32:14.123Z,4.34
2019-03-25T04:33:14.122Z,4.34
2019-03-25T04:34:14.098Z,4.42
2019-03-25T04:35:14.146Z,4.48
2019-03-25T04:36:14.098Z,4.46
2019-03-25T04:37:14.077Z,4.43
2019-03-25T04:38:14.063Z,4.49
2019-03-25T04:39:14.048Z,4.43
2019-03-25T04:40:14.042Z,4.46
2019-03-25T04:41:14.040Z,4.51
2019-03-25T04:42:14.052Z,4.56
2019-03-25T04:43:14.007Z,4.53
2019-03-25T04:44:14.000Z,4.54
2019-03-25T04:45:13.979Z,4.54
2019-03-25T04:46:13.994Z,4.63
2019-03-25T04:47:13.962Z,4.63
2019-03-25T04:48:13.982Z,4.61
2019-03-25T04:49:13.939Z,4.59
2019-03-25T04:50:13.926Z,4.66
2019-03-25T04:51:13.934Z,4.67
2019-03-25T04:52:13.907Z,4.77
2019-03-25T04:53:13.901Z,4.74
2019-03-25T04:54:13.893Z,4.74
2019-03-25T04:55:13.984Z,4.77
2019-03-25T04:56:13.891Z,4.72
2019-03-25T04:57:13.858Z,4.77
2019-03-25T04:58:13.880Z,4.77
2019-03-25T04:59:13.838Z,4.72
2019-03-25T05:00:13.819Z,4.82
2019-03-25T05:01:14.537Z,4.79
2019-03-25T05:02:13.795Z,4.89
2019-03-25T05:03:13.795Z,4.94
2019-03-25T05:04:13.775Z,4.89
2019-03-25T05:05:13.770Z,4.94
2019-03-25T05:06:13.786Z,4.89
2019-03-25T05:07:13.747Z,5.00
2019-03-25T05:08:13.755Z,4.94
2019-03-25T05:09:13.725Z,5.07
2019-03-25T05:10:13.719Z,4.98
2019-03-25T05:11:13.729Z,5.11
2019-03-25T05:12:13.705Z,5.09
2019-03-25T05:13:13.679Z,5.09
2019-03-25T05:14:13.803Z,5.16
2019-03-25T05:15:13.851Z,5.11
2019-03-25T05:16:13.658Z,5.03
2019-03-25T05:17:13.651Z,5.16
2019-03-25T05:18:13.783Z,5.09
2019-03-25T05:19:13.685Z,5.12
2019-03-25T05:20:13.605Z,5.15
2019-03-25T05:21:13.599Z,5.16
2019-03-25T05:22:13.617Z,5.21
2019-03-25T05:23:13.575Z,5.22
2019-03-25T05:24:13.563Z,5.29
2019-03-25T05:25:13.610Z,5.25
2019-03-25T05:26:13.536Z,5.25
2019-03-25T05:27:13.554Z,5.29
2019-03-25T05:28:20.431Z,5.25
2019-03-25T05:29:13.513Z,5.29
2019-03-25T05:30:13.494Z,5.32
2019-03-25T05:31:13.490Z,5.36
2019-03-25T05:32:13.498Z,5.39
2019-03-25T05:33:13.552Z,5.32
2019-03-25T05:34:13.553Z,5.37
2019-03-25T05:35:13.442Z,5.39
2019-03-25T05:36:13.438Z,5.36
2019-03-25T05:37:13.424Z,5.32
2019-03-25T05:38:13.633Z,5.34
2019-03-25T05:39:13.424Z,5.39
2019-03-25T05:40:13.407Z,5.37
2019-03-25T05:41:13.399Z,5.40
2019-03-25T05:42:13.363Z,5.34
2019-03-25T05:43:13.367Z,5.37
2019-03-25T05:44:13.352Z,5.40
2019-03-25T05:45:13.382Z,5.40
2019-03-25T05:46:13.328Z,5.44
2019-03-25T05:47:13.338Z,5.52
2019-03-25T05:48:13.315Z,5.32
2019-03-25T05:49:13.292Z,5.33
2019-03-25T05:50:13.287Z,5.21
2019-03-25T05:51:13.290Z,5.01
2019-03-25T05:52:13.286Z,4.91
2019-03-25T05:53:13.252Z,4.66
2019-03-25T05:54:13.241Z,4.61
2019-03-25T05:55:13.250Z,4.36
2019-03-25T05:56:13.221Z,4.03
2019-03-25T05:57:13.225Z,3.94
2019-03-25T05:58:13.198Z,3.84
2019-03-25T05:59:13.192Z,3.59
2019-03-25T06:00:13.174Z,3.51
2019-03-25T06:01:13.210Z,3.36
2019-03-25T06:02:13.166Z,3.33
2019-03-25T06:03:13.138Z,3.27
2019-03-25T06:04:13.130Z,3.25
2019-03-25T06:05:13.118Z,3.18
2019-03-25T06:06:13.116Z,3.08
2019-03-25T06:07:13.143Z,3.08
2019-03-25T06:08:13.092Z,3.08
2019-03-25T06:09:13.076Z,2.96
2019-03-25T06:10:13.074Z,3.00
2019-03-25T06:11:13.064Z,3.00
2019-03-25T06:12:13.062Z,3.00
2019-03-25T06:13:13.028Z,2.90
2019-03-25T06:14:13.028Z,2.93
2019-03-25T06:15:13.014Z,3.02
2019-03-25T06:16:13.054Z,2.97
2019-03-25T06:17:13.008Z,2.97
2019-03-25T06:18:12.979Z,3.05
2019-03-25T06:19:12.968Z,3.04
2019-03-25T06:20:12.966Z,3.05
2019-03-25T06:21:12.950Z,3.05
2019-03-25T06:22:13.008Z,3.08
2019-03-25T06:23:12.927Z,3.12
2019-03-25T06:24:12.920Z,3.17
2019-03-25T06:25:12.940Z,3.15
2019-03-25T06:26:12.894Z,3.20
2019-03-25T06:27:14.483Z,3.15
2019-03-25T06:28:12.877Z,3.26
2019-03-25T06:29:12.872Z,3.27
2019-03-25T06:30:12.863Z,3.26
2019-03-25T06:31:12.841Z,3.33
2019-03-25T06:32:12.843Z,3.25
2019-03-25T06:33:13.007Z,3.25
2019-03-25T06:34:12.833Z,3.27
2019-03-25T06:35:12.796Z,3.25
2019-03-25T06:36:12.789Z,3.25
2019-03-25T06:37:12.788Z,3.23
2019-03-25T06:38:12.831Z,3.20
2019-03-25T06:39:12.759Z,3.14
2019-03-25T06:40:12.741Z,3.12
2019-03-25T06:41:12.755Z,3.12
2019-03-25T06:42:12.727Z,3.08
2019-03-25T06:43:12.734Z,3.11
2019-03-25T06:44:12.699Z,3.08
2019-03-25T06:45:12.703Z,2.99
2019-03-25T06:46:12.689Z,2.96
2019-03-25T06:47:12.687Z,2.97
2019-03-25T06:48:12.678Z,3.00
2019-03-25T06:49:12.651Z,2.96
2019-03-25T06:50:12.675Z,2.93
2019-03-25T06:51:12.631Z,2.94
2019-03-25T06:52:12.631Z,2.84
2019-03-25T06:53:12.631Z,2.94
2019-03-25T06:54:12.600Z,2.99
2019-03-25T06:55:12.621Z,3.00
2019-03-25T06:56:12.577Z,2.94
2019-03-25T06:57:12.563Z,2.91
2019-03-25T06:58:12.577Z,2.96
2019-03-25T06:59:12.544Z,2.96
2019-03-25T07:00:12.540Z,2.93
2019-03-25T07:01:12.534Z,2.93
2019-03-25T07:02:12.513Z,3.04
2019-03-25T07:03:12.509Z,2.96
2019-03-25T07:04:12.483Z,2.99
2019-03-25T07:05:12.516Z,2.91
2019-03-25T07:06:12.463Z,3.07
2019-03-25T07:07:12.458Z,3.00
2019-03-25T07:08:12.470Z,3.02
2019-03-25T07:09:12.434Z,3.09
2019-03-25T07:10:12.425Z,3.09
2019-03-25T07:11:12.421Z,3.14
2019-03-25T07:12:12.428Z,3.15
2019-03-25T07:13:12.391Z,3.17
2019-03-25T07:14:12.388Z,3.18
2019-03-25T07:15:12.367Z,3.22
2019-03-25T07:16:12.404Z,3.27
2019-03-25T07:17:12.357Z,3.27
2019-03-25T07:18:12.339Z,3.35
2019-03-25T07:19:12.376Z,3.36
2019-03-25T07:20:12.320Z,3.33
2019-03-25T07:21:12.310Z,3.42
2019-03-25T07:22:12.301Z,3.41
2019-03-25T07:23:12.296Z,3.36
2019-03-25T07:24:12.293Z,3.32
2019-03-25T07:25:12.262Z,3.41
2019-03-25T07:26:12.252Z,3.44
2019-03-25T07:27:12.250Z,3.42
2019-03-25T07:28:12.262Z,3.45
2019-03-25T07:29:12.233Z,3.46
2019-03-25T07:30:12.211Z,3.59
2019-03-25T07:31:12.197Z,3.63
2019-03-25T07:32:12.205Z,3.72
2019-03-25T07:33:12.181Z,3.73
2019-03-25T07:34:12.184Z,3.81
2019-03-25T07:35:12.159Z,3.80
2019-03-25T07:36:12.140Z,3.94
2019-03-25T07:37:12.155Z,3.96
2019-03-25T07:38:12.118Z,3.84
2019-03-25T07:39:12.139Z,4.06
2019-03-25T07:40:12.106Z,4.00
2019-03-25T07:41:12.100Z,4.18
2019-03-25T07:42:12.079Z,4.16
2019-03-25T07:43:12.064Z,4.16
2019-03-25T07:44:12.076Z,4.20
2019-03-25T07:45:12.054Z,4.24
2019-03-25T07:46:12.037Z,4.38
2019-03-25T07:47:12.030Z,4.28
2019-03-25T07:48:12.014Z,4.26
2019-03-25T07:49:12.015Z,4.31
2019-03-25T07:50:11.991Z,4.34
2019-03-25T07:51:11.986Z,4.38
2019-03-25T07:52:11.973Z,4.49
2019-03-25T07:53:11.957Z,4.42
2019-03-25T07:54:12.028Z,4.41
2019-03-25T07:55:11.942Z,4.46
2019-03-25T07:56:11.923Z,4.53
2019-03-25T07:57:11.961Z,4.61
2019-03-25T07:58:11.921Z,4.66
2019-03-25T07:59:11.912Z,4.71
2019-03-25T08:00:13.866Z,4.77
2019-03-25T08:01:11.897Z,4.89
2019-03-25T08:02:11.877Z,4.91
2019-03-25T08:03:11.884Z,5.04
2019-03-25T08:04:11.883Z,5.09
2019-03-25T08:05:11.867Z,5.12
2019-03-25T08:06:11.857Z,5.06
2019-03-25T08:07:11.807Z,5.18
2019-03-25T08:08:11.852Z,5.18
2019-03-25T08:09:11.789Z,5.07
2019-03-25T08:10:11.809Z,5.14
2019-03-25T08:11:11.803Z,5.14
2019-03-25T08:12:11.755Z,5.14
2019-03-25T08:13:11.849Z,5.07
2019-03-25T08:14:11.795Z,5.06
2019-03-25T08:15:11.743Z,5.14
2019-03-25T08:16:11.800Z,5.22
2019-03-25T08:17:11.699Z,5.18
2019-03-25T08:18:11.695Z,5.32
2019-03-25T08:19:11.687Z,5.27
2019-03-25T08:20:11.685Z,5.32
2019-03-25T08:21:11.666Z,5.39
2019-03-25T08:22:11.644Z,5.47
2019-03-25T08:23:11.633Z,5.55
2019-03-25T08:24:11.679Z,5.67
2019-03-25T08:25:11.639Z,5.87
2019-03-25T08:26:11.640Z,6.11
2019-03-25T08:27:11.603Z,6.28
2019-03-25T08:28:11.594Z,6.35
2019-03-25T08:29:11.579Z,6.49
2019-03-25T08:30:11.574Z,6.74
2019-03-25T08:31:11.580Z,6.64
2019-03-25T08:32:11.541Z,6.86
2019-03-25T08:33:11.533Z,6.97
2019-03-25T08:34:11.545Z,7.04
2019-03-25T08:35:11.525Z,7.29
2019-03-25T08:36:11.496Z,7.42
2019-03-25T08:37:11.492Z,7.50
2019-03-25T08:38:11.474Z,7.60
2019-03-25T08:39:11.476Z,7.49
2019-03-25T08:40:11.483Z,7.49
2019-03-25T08:41:11.440Z,7.43
2019-03-25T08:42:11.432Z,7.42
2019-03-25T08:43:11.420Z,7.24
2019-03-25T08:44:11.408Z,7.26
2019-03-25T08:45:11.408Z,7.11
2019-03-25T08:46:11.408Z,7.01
2019-03-25T08:47:11.374Z,7.08
2019-03-25T08:48:11.368Z,7.25
2019-03-25T08:49:12.115Z,7.31
2019-03-25T08:50:11.346Z,7.33
2019-03-25T08:51:11.343Z,7.42
2019-03-25T08:52:11.338Z,7.43
2019-03-25T08:53:11.306Z,7.40
2019-03-25T08:54:11.304Z,7.43
2019-03-25T08:55:11.286Z,7.62
2019-03-25T08:56:11.294Z,7.55
2019-03-25T08:57:11.270Z,7.54
2019-03-25T08:58:12.462Z,7.58
2019-03-25T08:59:11.266Z,7.57
2019-03-25T09:00:11.251Z,7.54
2019-03-25T09:01:11.241Z,7.54
2019-03-25T09:02:11.217Z,7.43
2019-03-25T09:03:11.205Z,7.33
2019-03-25T09:04:11.193Z,7.29
2019-03-25T09:05:11.178Z,7.16
2019-03-25T09:06:11.214Z,7.10
2019-03-25T09:07:11.163Z,7.07
2019-03-25T09:08:11.148Z,7.00
2019-03-25T09:09:11.137Z,7.00
2019-03-25T09:10:11.130Z,6.99
2019-03-25T09:11:11.131Z,7.04
2019-03-25T09:12:11.113Z,7.10
2019-03-25T09:13:11.111Z,7.19
2019-03-25T09:14:11.083Z,7.07
2019-03-25T09:15:11.072Z,7.11
2019-03-25T09:16:11.073Z,7.19
2019-03-25T09:17:11.045Z,6.97
2019-03-25T09:18:11.041Z,7.03
2019-03-25T09:19:11.055Z,7.06
2019-03-25T09:20:11.022Z,7.00
2019-03-25T09:21:11.109Z,7.04
2019-03-25T09:22:10.994Z,7.31
2019-03-25T09:23:10.985Z,7.40
2019-03-25T09:24:10.978Z,7.62
2019-03-25T09:25:10.971Z,7.69
2019-03-25T09:26:10.979Z,7.76
2019-03-25T09:27:10.938Z,7.84
2019-03-25T09:28:10.926Z,7.86
2019-03-25T09:29:10.926Z,7.76
2019-03-25T09:30:10.911Z,7.69
2019-03-25T09:31:10.925Z,7.62
2019-03-25T09:32:10.885Z,7.49
2019-03-25T09:33:10.875Z,7.40
2019-03-25T09:34:10.861Z,7.16
2019-03-25T09:35:10.860Z,7.18
2019-03-25T09:36:10.857Z,7.08
2019-03-25T09:37:10.854Z,7.21
2019-03-25T09:38:10.820Z,7.21
2019-03-25T09:39:10.810Z,7.01
2019-03-25T09:40:10.802Z,6.97
2019-03-25T09:41:10.805Z,6.96
2019-03-25T09:42:10.789Z,7.04
2019-03-25T09:43:10.802Z,7.22
2019-03-25T09:44:10.755Z,7.22
2019-03-25T09:45:10.744Z,7.24
2019-03-25T09:46:10.752Z,7.26
2019-03-25T09:47:10.724Z,7.29
2019-03-25T09:48:10.711Z,7.40
2019-03-25T09:49:10.704Z,7.52
2019-03-25T09:50:10.692Z,7.58
2019-03-25T09:51:10.708Z,7.62
2019-03-25T09:52:10.669Z,7.68
2019-03-25T09:53:10.662Z,7.68
2019-03-25T09:54:10.647Z,7.49
2019-03-25T09:55:10.631Z,7.50
2019-03-25T09:56:10.642Z,7.39
2019-03-25T09:57:10.624Z,7.39
2019-03-25T09:58:10.654Z,7.40
2019-03-25T09:59:10.595Z,7.39
2019-03-25T10:00:10.580Z,7.28
2019-03-25T10:01:10.591Z,7.19
2019-03-25T10:02:10.560Z,7.18
2019-03-25T10:03:10.598Z,7.10
2019-03-25T10:04:10.540Z,7.06
2019-03-25T10:05:10.542Z,7.01
2019-03-25T10:06:10.534Z,6.97
2019-03-25T10:07:10.504Z,6.96
2019-03-25T10:08:10.493Z,6.92
2019-03-25T10:09:10.509Z,6.89
2019-03-25T10:10:10.467Z,7.00
2019-03-25T10:11:10.482Z,7.01
2019-03-25T10:12:10.449Z,7.01
2019-03-25T10:13:10.438Z,7.10
2019-03-25T10:14:10.427Z,7.19
2019-03-25T10:15:10.431Z,7.36
2019-03-25T10:16:10.472Z,7.29
2019-03-25T10:17:10.404Z,7.42
2019-03-25T10:18:10.383Z,7.60
2019-03-25T10:19:10.508Z,7.73
2019-03-25T10:20:10.368Z,7.78
2019-03-25T10:21:10.358Z,7.88
2019-03-25T10:22:10.368Z,7.98
2019-03-25T10:23:10.327Z,8.16
2019-03-25T10:24:10.322Z,8.34
2019-03-25T10:25:10.312Z,8.39
2019-03-25T10:26:10.297Z,8.53
2019-03-25T10:27:10.338Z,8.70
2019-03-25T10:28:10.275Z,8.74
2019-03-25T10:29:10.264Z,8.85
2019-03-25T10:30:10.255Z,8.90
2019-03-25T10:31:10.246Z,8.83
2019-03-25T10:32:10.253Z,8.83
2019-03-25T10:33:10.226Z,8.77
2019-03-25T10:34:10.219Z,8.60
2019-03-25T10:35:10.205Z,8.57
2019-03-25T10:36:10.219Z,8.42
2019-03-25T10:37:10.185Z,8.37
2019-03-25T10:38:19.166Z,8.31
2019-03-25T10:39:11.177Z,8.13
2019-03-25T10:40:10.196Z,8.17
2019-03-25T10:41:10.185Z,8.24
2019-03-25T10:42:10.139Z,8.21
2019-03-25T10:43:10.116Z,8.24
2019-03-25T10:44:10.113Z,8.06
2019-03-25T10:45:10.094Z,8.06
2019-03-25T10:46:10.081Z,8.23
2019-03-25T10:47:10.088Z,8.28
2019-03-25T10:48:10.057Z,8.47
2019-03-25T10:49:10.077Z,8.56
2019-03-25T10:50:10.038Z,8.80
2019-03-25T10:51:10.028Z,9.01
2019-03-25T10:52:10.026Z,9.14
2019-03-25T10:53:10.061Z,9.09
2019-03-25T10:54:10.004Z,9.15
2019-03-25T10:55:10.020Z,9.33
2019-03-25T10:56:09.964Z,9.33
2019-03-25T10:57:09.975Z,9.41
2019-03-25T10:58:09.944Z,9.44
2019-03-25T10:59:09.932Z,9.51
2019-03-25T11:00:09.923Z,9.51
2019-03-25T11:01:09.926Z,9.55
2019-03-25T11:02:09.953Z,9.66
2019-03-25T11:03:09.894Z,9.57
2019-03-25T11:04:09.880Z,9.44
2019-03-25T11:05:09.878Z,9.48
2019-03-25T11:06:09.862Z,9.45
2019-03-25T11:07:09.908Z,9.45
2019-03-25T11:08:09.848Z,9.24
2019-03-25T11:09:09.844Z,9.18
2019-03-25T11:10:09.817Z,9.18
2019-03-25T11:11:09.806Z,9.15
2019-03-25T11:12:09.812Z,9.24
2019-03-25T11:13:09.780Z,9.18
2019-03-25T11:14:09.785Z,9.16
2019-03-25T11:15:09.761Z,9.15
2019-03-25T11:16:10.414Z,9.12
2019-03-25T11:17:09.752Z,9.14
2019-03-25T11:18:09.733Z,9.16
2019-03-25T11:19:09.717Z,9.78
2019-03-25T11:20:09.717Z,10.64
2019-03-25T11:21:09.714Z,11.11
2019-03-25T11:22:09.708Z,11.25
2019-03-25T11:23:09.677Z,11.34
2019-03-25T11:24:09.670Z,11.33
2019-03-25T11:25:09.658Z,11.12
2019-03-25T11:26:09.647Z,11.04
2019-03-25T11:27:09.663Z,10.87
2019-03-25T11:28:09.621Z,10.61
2019-03-25T11:29:09.613Z,10.55
2019-03-25T11:30:09.598Z,10.26
2019-03-25T11:31:09.585Z,10.21
2019-03-25T11:32:09.596Z,10.02
2019-03-25T11:33:09.582Z,9.87
2019-03-25T11:34:09.557Z,10.01
2019-03-25T11:35:09.546Z,10.58
2019-03-25T11:36:09.532Z,11.03
2019-03-25T11:37:09.539Z,11.96
2019-03-25T11:38:09.507Z,12.69
2019-03-25T11:39:09.507Z,13.47
2019-03-25T11:40:09.487Z,13.79
2019-03-25T11:41:09.483Z,13.82
2019-03-25T11:42:10.347Z,13.93
2019-03-25T11:43:09.455Z,14.27
2019-03-25T11:44:09.447Z,14.61
2019-03-25T11:45:09.444Z,15.08
2019-03-25T11:46:09.428Z,15.15
2019-03-25T11:47:09.437Z,15.29
2019-03-25T11:48:09.401Z,15.60
2019-03-25T11:49:09.444Z,16.10
2019-03-25T11:50:09.383Z,16.47
2019-03-25T11:51:09.370Z,16.82
2019-03-25T11:52:09.401Z,17.31
2019-03-25T11:53:09.349Z,17.93
2019-03-25T11:54:09.345Z,18.31
2019-03-25T11:55:09.333Z,18.52
2019-03-25T11:56:09.320Z,18.91
2019-03-25T11:57:09.318Z,19.39
2019-03-25T11:58:09.293Z,19.77
2019-03-25T11:59:18.255Z,19.59
2019-03-25T12:00:10.274Z,19.67
2019-03-25T12:01:09.269Z,18.85
2019-03-25T12:02:17.213Z,18.31
2019-03-25T12:03:10.239Z,17.84
2019-03-25T12:04:10.573Z,17.50
2019-03-25T12:05:09.238Z,17.12
2019-03-25T12:06:09.210Z,16.82
2019-03-25T12:07:09.224Z,16.46
2019-03-25T12:08:09.207Z,16.21
2019-03-25T12:09:09.176Z,15.96
2019-03-25T12:10:09.170Z,15.91
2019-03-25T12:11:09.159Z,15.77
2019-03-25T12:12:09.156Z,16.03
2019-03-25T12:13:09.146Z,16.67
2019-03-25T12:14:09.120Z,17.06
2019-03-25T12:15:09.110Z,16.70
2019-03-25T12:16:09.102Z,16.28
2019-03-25T12:17:09.108Z,15.58
2019-03-25T12:18:09.092Z,15.32
2019-03-25T12:19:09.094Z,15.15
2019-03-25T12:20:09.053Z,14.85
2019-03-25T12:21:09.041Z,14.59
2019-03-25T12:22:09.080Z,14.23
2019-03-25T12:23:09.035Z,13.93
2019-03-25T12:24:09.020Z,13.63
2019-03-25T12:25:08.998Z,13.67
2019-03-25T12:26:08.989Z,13.43
2019-03-25T12:27:08.991Z,13.53
2019-03-25T12:28:08.984Z,13.61
2019-03-25T12:29:08.953Z,13.88
2019-03-25T12:30:08.950Z,14.22
2019-03-25T12:31:08.931Z,14.30
2019-03-25T12:32:08.928Z,14.59
2019-03-25T12:33:08.931Z,14.36
2019-03-25T12:34:08.923Z,13.88
2019-03-25T12:35:08.892Z,13.71
2019-03-25T12:36:08.880Z,13.42
2019-03-25T12:37:08.929Z,13.05
2019-03-25T12:38:08.874Z,12.80
2019-03-25T12:39:08.905Z,12.41
2019-03-25T12:40:08.839Z,12.73
2019-03-25T12:41:08.824Z,13.39
2019-03-25T12:42:08.812Z,13.82
2019-03-25T12:43:08.819Z,14.38
2019-03-25T12:44:08.791Z,15.03
2019-03-25T12:45:08.804Z,15.54
2019-03-25T12:46:08.775Z,16.06
2019-03-25T12:47:08.770Z,16.52
2019-03-25T12:48:08.767Z,16.64
2019-03-25T12:49:08.736Z,17.09
2019-03-25T12:50:08.724Z,17.34
2019-03-25T12:51:08.728Z,17.68
2019-03-25T12:52:08.722Z,18.05
2019-03-25T12:53:08.706Z,18.41
2019-03-25T12:54:08.698Z,18.98
2019-03-25T12:55:08.672Z,19.42
2019-03-25T12:56:08.664Z,19.63
2019-03-25T12:57:08.663Z,19.78
2019-03-25T12:58:08.658Z,19.90
2019-03-25T12:59:08.628Z,19.78
2019-03-25T13:00:08.618Z,19.64
2019-03-25T13:01:08.608Z,19.89
2019-03-25T13:02:08.610Z,20.37
2019-03-25T13:03:08.613Z,20.46
2019-03-25T13:04:08.579Z,20.58
2019-03-25T13:05:08.566Z,20.73
2019-03-25T13:06:08.557Z,21.23
2019-03-25T13:07:08.539Z,21.45
2019-03-25T13:08:08.554Z,21.74
2019-03-25T13:09:08.520Z,21.91
2019-03-25T13:10:08.511Z,22.25
2019-03-25T13:11:08.518Z,22.30
2019-03-25T13:12:08.492Z,22.38
2019-03-25T13:13:08.496Z,22.67
2019-03-25T13:14:08.470Z,21.93